sensor_id;sensor_type;location;lat;lon;timestamp;pressure;altitude;pressure_sealevel;temperature;humidity
73280;BME280;61511;49.286;9.700;2022-08-03T00:00:31;97402.66;;;19.54;51.63
73280;BME280;61511;49.286;9.700;2022-08-03T00:03:00;97400.63;;;19.51;51.33
73280;BME280;61511;49.286;9.700;2022-08-03T00:05:28;97404.41;;;19.50;51.17
73280;BME280;61511;49.286;9.700;2022-08-03T00:07:58;97402.03;;;19.48;50.89
73280;BME280;61511;49.286;9.700;2022-08-03T00:10:26;97404.19;;;19.46;51.09
73280;BME280;61511;49.286;9.700;2022-08-03T00:12:55;97399.75;;;19.42;51.24
73280;BME280;61511;49.286;9.700;2022-08-03T00:15:23;97407.00;;;19.41;50.64
73280;BME280;61511;49.286;9.700;2022-08-03T00:17:51;97409.97;;;19.40;50.76
73280;BME280;61511;49.286;9.700;2022-08-03T00:20:21;97414.06;;;19.37;50.20
73280;BME280;61511;49.286;9.700;2022-08-03T00:22:49;97404.31;;;19.33;50.63
73280;BME280;61511;49.286;9.700;2022-08-03T00:25:17;97405.69;;;19.30;50.91
73280;BME280;61511;49.286;9.700;2022-08-03T00:27:45;97405.69;;;19.30;50.67
73280;BME280;61511;49.286;9.700;2022-08-03T00:30:16;97398.59;;;19.25;50.68
73280;BME280;61511;49.286;9.700;2022-08-03T00:32:45;97399.41;;;19.26;50.82
73280;BME280;61511;49.286;9.700;2022-08-03T00:35:13;97402.06;;;19.26;50.37
73280;BME280;61511;49.286;9.700;2022-08-03T00:38:03;97393.56;;;19.24;50.23
73280;BME280;61511;49.286;9.700;2022-08-03T00:40:31;97392.31;;;19.21;50.97
73280;BME280;61511;49.286;9.700;2022-08-03T00:42:59;97395.88;;;19.17;51.27
73280;BME280;61511;49.286;9.700;2022-08-03T00:45:29;97394.63;;;19.14;51.10
73280;BME280;61511;49.286;9.700;2022-08-03T00:47:58;97394.75;;;19.09;51.55
73280;BME280;61511;49.286;9.700;2022-08-03T00:50:27;97393.97;;;19.09;51.53
73280;BME280;61511;49.286;9.700;2022-08-03T00:52:58;97399.91;;;19.06;51.25
73280;BME280;61511;49.286;9.700;2022-08-03T00:55:27;97391.72;;;19.02;51.65
73280;BME280;61511;49.286;9.700;2022-08-03T00:57:55;97391.53;;;18.99;51.61
73280;BME280;61511;49.286;9.700;2022-08-03T01:00:26;97402.09;;;18.95;51.72
73280;BME280;61511;49.286;9.700;2022-08-03T01:02:54;97396.25;;;18.93;51.96
73280;BME280;61511;49.286;9.700;2022-08-03T01:05:22;97393.69;;;18.88;52.21
73280;BME280;61511;49.286;9.700;2022-08-03T01:08:00;97390.38;;;18.82;52.41
73280;BME280;61511;49.286;9.700;2022-08-03T01:10:37;97391.16;;;18.83;52.19
73280;BME280;61511;49.286;9.700;2022-08-03T01:13:17;97386.44;;;18.80;52.41
73280;BME280;61511;49.286;9.700;2022-08-03T01:16:13;97386.88;;;18.73;52.21
73280;BME280;61511;49.286;9.700;2022-08-03T01:18:59;97384.31;;;18.68;52.11
73280;BME280;61511;49.286;9.700;2022-08-03T01:21:32;97392.63;;;18.67;52.04
73280;BME280;61511;49.286;9.700;2022-08-03T01:24:22;97389.59;;;18.60;52.20
73280;BME280;61511;49.286;9.700;2022-08-03T01:27:06;97390.69;;;18.59;52.55
73280;BME280;61511;49.286;9.700;2022-08-03T01:29:51;97384.56;;;18.58;52.05
73280;BME280;61511;49.286;9.700;2022-08-03T01:32:26;97387.72;;;18.60;52.02
73280;BME280;61511;49.286;9.700;2022-08-03T01:35:21;97382.06;;;18.62;52.07
73280;BME280;61511;49.286;9.700;2022-08-03T01:37:55;97374.34;;;18.60;52.19
73280;BME280;61511;49.286;9.700;2022-08-03T01:40:26;97377.31;;;18.59;52.10
73280;BME280;61511;49.286;9.700;2022-08-03T01:42:56;97370.44;;;18.58;52.11
73280;BME280;61511;49.286;9.700;2022-08-03T01:45:28;97366.97;;;18.57;52.01
73280;BME280;61511;49.286;9.700;2022-08-03T01:48:00;97362.69;;;18.56;51.71
73280;BME280;61511;49.286;9.700;2022-08-03T01:50:30;97360.31;;;18.55;51.32
73280;BME280;61511;49.286;9.700;2022-08-03T01:53:00;97365.94;;;18.53;51.16
73280;BME280;61511;49.286;9.700;2022-08-03T01:55:30;97362.19;;;18.54;51.23
73280;BME280;61511;49.286;9.700;2022-08-03T01:58:00;97366.56;;;18.50;51.43
73280;BME280;61511;49.286;9.700;2022-08-03T02:00:34;97361.81;;;18.47;51.41
73280;BME280;61511;49.286;9.700;2022-08-03T02:03:04;97354.13;;;18.45;51.77
73280;BME280;61511;49.286;9.700;2022-08-03T02:05:33;97355.22;;;18.44;52.21
73280;BME280;61511;49.286;9.700;2022-08-03T02:08:04;97357.38;;;18.42;51.79
73280;BME280;61511;49.286;9.700;2022-08-03T02:10:35;97352.34;;;18.41;51.66
73280;BME280;61511;49.286;9.700;2022-08-03T02:13:06;97353.63;;;18.43;51.46
73280;BME280;61511;49.286;9.700;2022-08-03T02:15:37;97351.75;;;18.44;51.63
73280;BME280;61511;49.286;9.700;2022-08-03T02:18:07;97349.56;;;18.46;51.38
73280;BME280;61511;49.286;9.700;2022-08-03T02:20:37;97346.41;;;18.44;51.38
73280;BME280;61511;49.286;9.700;2022-08-03T02:23:05;97353.78;;;18.47;50.96
73280;BME280;61511;49.286;9.700;2022-08-03T02:25:38;97355.06;;;18.50;51.11
73280;BME280;61511;49.286;9.700;2022-08-03T02:28:10;97349.44;;;18.51;50.90
73280;BME280;61511;49.286;9.700;2022-08-03T02:30:44;97352.09;;;18.51;51.17
73280;BME280;61511;49.286;9.700;2022-08-03T02:33:24;97348.94;;;18.49;51.32
73280;BME280;61511;49.286;9.700;2022-08-03T02:35:54;97353.31;;;18.45;51.39
73280;BME280;61511;49.286;9.700;2022-08-03T02:38:27;97348.28;;;18.43;51.27
73280;BME280;61511;49.286;9.700;2022-08-03T02:40:58;97346.53;;;18.39;51.61
73280;BME280;61511;49.286;9.700;2022-08-03T02:43:29;97348.72;;;18.37;52.07
73280;BME280;61511;49.286;9.700;2022-08-03T02:46:23;97345.88;;;18.33;52.72
73280;BME280;61511;49.286;9.700;2022-08-03T02:48:52;97349.91;;;18.31;52.82
73280;BME280;61511;49.286;9.700;2022-08-03T02:51:22;97348.66;;;18.28;53.27
73280;BME280;61511;49.286;9.700;2022-08-03T02:53:51;97339.97;;;18.23;53.18
73280;BME280;61511;49.286;9.700;2022-08-03T02:56:21;97342.16;;;18.21;53.30
73280;BME280;61511;49.286;9.700;2022-08-03T02:58:51;97346.53;;;18.17;53.17
73280;BME280;61511;49.286;9.700;2022-08-03T03:01:21;97349.22;;;18.17;52.69
73280;BME280;61511;49.286;9.700;2022-08-03T03:03:52;97346.34;;;18.13;52.84
73280;BME280;61511;49.286;9.700;2022-08-03T03:06:23;97349.31;;;18.12;52.35
73280;BME280;61511;49.286;9.700;2022-08-03T03:08:55;97342.19;;;18.07;53.09
73280;BME280;61511;49.286;9.700;2022-08-03T03:11:25;97345.78;;;18.02;52.94
73280;BME280;61511;49.286;9.700;2022-08-03T03:13:55;97341.91;;;18.09;52.74
73280;BME280;61511;49.286;9.700;2022-08-03T03:16:27;97339.72;;;18.11;53.01
73280;BME280;61511;49.286;9.700;2022-08-03T03:18:56;97346.34;;;18.13;53.34
73280;BME280;61511;49.286;9.700;2022-08-03T03:21:25;97338.94;;;18.10;53.18
73280;BME280;61511;49.286;9.700;2022-08-03T03:23:54;97338.44;;;18.08;53.17
73280;BME280;61511;49.286;9.700;2022-08-03T03:26:22;97339.22;;;18.09;53.25
73280;BME280;61511;49.286;9.700;2022-08-03T03:28:51;97345.16;;;18.05;52.92
73280;BME280;61511;49.286;9.700;2022-08-03T03:31:18;97350.34;;;18.02;53.19
73280;BME280;61511;49.286;9.700;2022-08-03T03:33:48;97348.28;;;17.99;53.35
73280;BME280;61511;49.286;9.700;2022-08-03T03:36:16;97348.56;;;17.97;54.04
73280;BME280;61511;49.286;9.700;2022-08-03T03:38:45;97355.13;;;17.91;54.20
73280;BME280;61511;49.286;9.700;2022-08-03T03:41:13;97348.69;;;17.92;53.94
73280;BME280;61511;49.286;9.700;2022-08-03T03:43:41;97349.09;;;17.86;54.07
73280;BME280;61511;49.286;9.700;2022-08-03T03:46:11;97352.06;;;17.84;54.47
73280;BME280;61511;49.286;9.700;2022-08-03T03:48:39;97350.31;;;17.80;54.63
73280;BME280;61511;49.286;9.700;2022-08-03T03:51:09;97344.78;;;17.76;54.32
73280;BME280;61511;49.286;9.700;2022-08-03T03:53:37;97340.53;;;17.75;54.77
73280;BME280;61511;49.286;9.700;2022-08-03T03:56:05;97350.41;;;17.75;54.56
73280;BME280;61511;49.286;9.700;2022-08-03T03:58:33;97352.59;;;17.73;54.57
73280;BME280;61511;49.286;9.700;2022-08-03T04:01:01;97352.81;;;17.76;54.45
73280;BME280;61511;49.286;9.700;2022-08-03T04:03:29;97346.97;;;17.74;54.64
73280;BME280;61511;49.286;9.700;2022-08-03T04:05:57;97345.88;;;17.75;55.45
73280;BME280;61511;49.286;9.700;2022-08-03T04:08:44;97346.66;;;17.76;55.41
73280;BME280;61511;49.286;9.700;2022-08-03T04:11:35;97346.66;;;17.76;55.20
73280;BME280;61511;49.286;9.700;2022-08-03T04:15:54;97342.31;;;17.80;55.01
73280;BME280;61511;49.286;9.700;2022-08-03T04:18:25;97349.22;;;17.81;55.07
73280;BME280;61511;49.286;9.700;2022-08-03T04:20:58;97350.00;;;17.81;55.47
73280;BME280;61511;49.286;9.700;2022-08-03T04:23:32;97349.22;;;17.81;55.33
73280;BME280;61511;49.286;9.700;2022-08-03T04:26:01;97345.47;;;17.82;55.85
73280;BME280;61511;49.286;9.700;2022-08-03T04:29:28;97340.13;;;17.82;56.10
73280;BME280;61511;49.286;9.700;2022-08-03T04:31:58;97341.38;;;17.84;56.50
73280;BME280;61511;49.286;9.700;2022-08-03T04:34:29;97344.34;;;17.83;56.39
73280;BME280;61511;49.286;9.700;2022-08-03T04:36:59;97341.38;;;17.84;55.74
73280;BME280;61511;49.286;9.700;2022-08-03T04:39:30;97345.03;;;17.88;56.59
73280;BME280;61511;49.286;9.700;2022-08-03T04:42:02;97352.16;;;17.93;56.39
73280;BME280;61511;49.286;9.700;2022-08-03T04:44:45;97352.94;;;17.93;56.46
73280;BME280;61511;49.286;9.700;2022-08-03T04:47:13;97356.59;;;17.97;56.34
73280;BME280;61511;49.286;9.700;2022-08-03T04:49:42;97359.75;;;17.99;57.56
73280;BME280;61511;49.286;9.700;2022-08-03T04:52:10;97355.50;;;17.98;57.08
73280;BME280;61511;49.286;9.700;2022-08-03T04:54:39;97359.75;;;17.99;56.16
73280;BME280;61511;49.286;9.700;2022-08-03T04:57:11;97363.09;;;18.05;56.23
73280;BME280;61511;49.286;9.700;2022-08-03T04:59:51;97362.97;;;18.10;55.85
73280;BME280;61511;49.286;9.700;2022-08-03T05:02:29;97365.81;;;18.14;56.77
73280;BME280;61511;49.286;9.700;2022-08-03T05:04:58;97367.13;;;18.16;56.58
73280;BME280;61511;49.286;9.700;2022-08-03T05:07:26;97366.69;;;18.23;56.04
73280;BME280;61511;49.286;9.700;2022-08-03T05:10:03;97366.44;;;18.33;55.38
73280;BME280;61511;49.286;9.700;2022-08-03T05:12:41;97363.03;;;18.41;55.90
73280;BME280;61511;49.286;9.700;2022-08-03T05:15:10;97366.06;;;18.48;55.07
73280;BME280;61511;49.286;9.700;2022-08-03T05:17:41;97364.28;;;18.57;54.87
73280;BME280;61511;49.286;9.700;2022-08-03T05:20:10;97366.69;;;18.67;54.65
73280;BME280;61511;49.286;9.700;2022-08-03T05:22:38;97367.22;;;18.78;54.59
73280;BME280;61511;49.286;9.700;2022-08-03T05:25:06;97374.16;;;18.79;54.60
73280;BME280;61511;49.286;9.700;2022-08-03T05:27:42;97371.00;;;18.77;54.71
73280;BME280;61511;49.286;9.700;2022-08-03T05:30:12;97372.22;;;18.71;54.69
73280;BME280;61511;49.286;9.700;2022-08-03T05:33:01;97379.13;;;18.72;53.81
73280;BME280;61511;49.286;9.700;2022-08-03T05:35:29;97370.81;;;18.73;53.85
73280;BME280;61511;49.286;9.700;2022-08-03T05:38:17;97376.53;;;18.80;54.26
73280;BME280;61511;49.286;9.700;2022-08-03T05:40:54;97378.44;;;18.88;54.57
73280;BME280;61511;49.286;9.700;2022-08-03T05:43:42;97371.25;;;18.98;54.04
73280;BME280;61511;49.286;9.700;2022-08-03T05:46:12;97377.72;;;19.05;54.17
73280;BME280;61511;49.286;9.700;2022-08-03T05:48:40;97377.00;;;19.13;54.26
73280;BME280;61511;49.286;9.700;2022-08-03T05:51:09;97368.50;;;19.20;53.94
73280;BME280;61511;49.286;9.700;2022-08-03T05:53:38;97376.56;;;19.28;54.09
73280;BME280;61511;49.286;9.700;2022-08-03T05:56:07;97370.75;;;19.35;54.51
73280;BME280;61511;49.286;9.700;2022-08-03T05:58:41;97373.50;;;19.52;53.74
73280;BME280;61511;49.286;9.700;2022-08-03T06:01:12;97372.44;;;19.71;52.72
73280;BME280;61511;49.286;9.700;2022-08-03T06:03:40;97377.19;;;19.82;51.53
73280;BME280;61511;49.286;9.700;2022-08-03T06:06:08;97379.75;;;19.96;51.57
73280;BME280;61511;49.286;9.700;2022-08-03T06:08:37;97373.59;;;19.95;49.81
73280;BME280;61511;49.286;9.700;2022-08-03T06:11:05;97381.16;;;20.02;51.68
73280;BME280;61511;49.286;9.700;2022-08-03T06:13:33;97384.47;;;20.07;51.11
73280;BME280;61511;49.286;9.700;2022-08-03T06:16:01;97383.53;;;20.21;51.13
73280;BME280;61511;49.286;9.700;2022-08-03T06:18:30;97391.25;;;20.31;50.48
73280;BME280;61511;49.286;9.700;2022-08-03T06:20:58;97391.44;;;20.43;50.08
73280;BME280;61511;49.286;9.700;2022-08-03T06:23:41;97380.22;;;20.67;49.80
73280;BME280;61511;49.286;9.700;2022-08-03T06:26:24;97383.47;;;20.89;49.72
73280;BME280;61511;49.286;9.700;2022-08-03T06:28:54;97384.50;;;21.06;48.14
73280;BME280;61511;49.286;9.700;2022-08-03T06:31:24;97386.22;;;21.19;47.71
73280;BME280;61511;49.286;9.700;2022-08-03T06:34:03;97385.50;;;21.39;47.67
73280;BME280;61511;49.286;9.700;2022-08-03T06:36:52;97384.06;;;21.71;48.20
73280;BME280;61511;49.286;9.700;2022-08-03T06:39:27;97380.59;;;21.91;46.59
73280;BME280;61511;49.286;9.700;2022-08-03T06:41:55;97380.31;;;22.13;45.96
73280;BME280;61511;49.286;9.700;2022-08-03T06:44:23;97388.06;;;22.36;45.84
73280;BME280;61511;49.286;9.700;2022-08-03T06:46:51;97383.41;;;22.57;45.39
73280;BME280;61511;49.286;9.700;2022-08-03T06:49:21;97390.34;;;22.79;44.66
73280;BME280;61511;49.286;9.700;2022-08-03T06:51:49;97392.53;;;22.98;44.38
73280;BME280;61511;49.286;9.700;2022-08-03T06:54:32;97397.63;;;23.23;44.79
73280;BME280;61511;49.286;9.700;2022-08-03T06:57:01;97390.47;;;23.52;43.90
73280;BME280;61511;49.286;9.700;2022-08-03T06:59:29;97392.38;;;23.63;42.55
73280;BME280;61511;49.286;9.700;2022-08-03T07:02:17;97398.25;;;24.05;42.51
73280;BME280;61511;49.286;9.700;2022-08-03T07:04:47;97396.78;;;24.20;41.63
73280;BME280;61511;49.286;9.700;2022-08-03T07:07:15;97395.22;;;24.47;41.00
73280;BME280;61511;49.286;9.700;2022-08-03T07:09:45;97398.41;;;24.65;40.14
73280;BME280;61511;49.286;9.700;2022-08-03T07:12:23;97399.69;;;24.83;40.11
73280;BME280;61511;49.286;9.700;2022-08-03T07:14:51;97405.78;;;24.80;39.82
73280;BME280;61511;49.286;9.700;2022-08-03T07:17:25;97399.84;;;25.02;39.48
73280;BME280;61511;49.286;9.700;2022-08-03T07:19:58;97397.22;;;25.37;39.07
73280;BME280;61511;49.286;9.700;2022-08-03T07:22:26;97400.91;;;25.60;39.57
73280;BME280;61511;49.286;9.700;2022-08-03T07:24:55;97408.28;;;25.79;38.75
73280;BME280;61511;49.286;9.700;2022-08-03T07:27:23;97402.56;;;26.00;37.88
73280;BME280;61511;49.286;9.700;2022-08-03T07:29:54;97402.66;;;26.23;37.66
73280;BME280;61511;49.286;9.700;2022-08-03T07:32:22;97402.19;;;26.55;37.96
73280;BME280;61511;49.286;9.700;2022-08-03T07:34:50;97398.41;;;26.60;36.37
73280;BME280;61511;49.286;9.700;2022-08-03T07:37:27;97409.53;;;26.55;36.74
73280;BME280;61511;49.286;9.700;2022-08-03T07:39:55;97407.31;;;26.41;36.33
73280;BME280;61511;49.286;9.700;2022-08-03T07:42:23;97400.09;;;26.87;36.26
73280;BME280;61511;49.286;9.700;2022-08-03T07:44:51;97402.78;;;26.87;35.47
73280;BME280;61511;49.286;9.700;2022-08-03T07:47:18;97400.59;;;26.93;35.45
73280;BME280;61511;49.286;9.700;2022-08-03T07:49:48;97403.41;;;27.19;36.90
73280;BME280;61511;49.286;9.700;2022-08-03T07:52:16;97402.28;;;27.47;34.96
73280;BME280;61511;49.286;9.700;2022-08-03T07:55:04;97397.22;;;27.45;35.41
73280;BME280;61511;49.286;9.700;2022-08-03T07:57:33;97401.53;;;27.50;34.36
73280;BME280;61511;49.286;9.700;2022-08-03T08:00:03;97395.84;;;27.81;33.35
73280;BME280;61511;49.286;9.700;2022-08-03T08:02:32;97398.88;;;28.29;33.67
73280;BME280;61511;49.286;9.700;2022-08-03T08:05:00;97398.53;;;28.67;31.90
73280;BME280;61511;49.286;9.700;2022-08-03T08:07:32;97399.41;;;28.75;31.91
73280;BME280;61511;49.286;9.700;2022-08-03T08:10:01;97396.53;;;30.62;29.57
73280;BME280;61511;49.286;9.700;2022-08-03T08:12:30;97396.16;;;32.30;26.61
73280;BME280;61511;49.286;9.700;2022-08-03T08:14:58;97390.50;;;32.76;25.28
73280;BME280;61511;49.286;9.700;2022-08-03T08:17:26;97396.34;;;35.13;22.30
73280;BME280;61511;49.286;9.700;2022-08-03T08:19:54;97398.31;;;35.86;21.03
73280;BME280;61511;49.286;9.700;2022-08-03T08:22:24;97392.88;;;36.81;19.69
73280;BME280;61511;49.286;9.700;2022-08-03T08:24:57;97388.53;;;36.84;19.66
73280;BME280;61511;49.286;9.700;2022-08-03T08:27:27;97394.03;;;38.55;18.25
73280;BME280;61511;49.286;9.700;2022-08-03T08:30:18;97392.28;;;38.74;17.22
73280;BME280;61511;49.286;9.700;2022-08-03T08:32:47;97394.38;;;39.58;16.44
73280;BME280;61511;49.286;9.700;2022-08-03T08:35:16;97387.72;;;40.46;15.81
73280;BME280;61511;49.286;9.700;2022-08-03T08:37:45;97389.75;;;41.08;14.67
73280;BME280;61511;49.286;9.700;2022-08-03T08:40:19;97379.91;;;41.83;14.29
73280;BME280;61511;49.286;9.700;2022-08-03T08:42:47;97394.84;;;43.00;13.36
73280;BME280;61511;49.286;9.700;2022-08-03T08:45:26;97388.56;;;42.03;14.21
73280;BME280;61511;49.286;9.700;2022-08-03T08:47:56;97391.72;;;43.40;13.25
73280;BME280;61511;49.286;9.700;2022-08-03T08:50:32;97396.34;;;44.74;12.22
73280;BME280;61511;49.286;9.700;2022-08-03T08:53:01;97388.16;;;45.34;11.58
73280;BME280;61511;49.286;9.700;2022-08-03T08:55:30;97389.09;;;45.11;11.22
73280;BME280;61511;49.286;9.700;2022-08-03T08:58:20;97392.00;;;46.44;10.89
73280;BME280;61511;49.286;9.700;2022-08-03T09:00:50;97388.13;;;46.36;10.96
73280;BME280;61511;49.286;9.700;2022-08-03T09:03:18;97380.38;;;47.14;10.40
73280;BME280;61511;49.286;9.700;2022-08-03T09:05:58;97384.09;;;46.94;10.29
73280;BME280;61511;49.286;9.700;2022-08-03T09:08:27;97382.63;;;47.47;9.87
73280;BME280;61511;49.286;9.700;2022-08-03T09:10:55;97382.22;;;46.28;10.14
73280;BME280;61511;49.286;9.700;2022-08-03T09:13:23;97377.28;;;47.01;10.36
73280;BME280;61511;49.286;9.700;2022-08-03T09:16:14;97385.63;;;45.51;10.87
73280;BME280;61511;49.286;9.700;2022-08-03T09:18:44;97391.47;;;44.69;11.74
73280;BME280;61511;49.286;9.700;2022-08-03T09:21:14;97381.97;;;46.06;10.74
73280;BME280;61511;49.286;9.700;2022-08-03T09:23:58;97390.69;;;43.29;12.49
73280;BME280;61511;49.286;9.700;2022-08-03T09:26:33;97383.88;;;45.94;11.15
73280;BME280;61511;49.286;9.700;2022-08-03T09:29:03;97383.00;;;46.29;10.31
73280;BME280;61511;49.286;9.700;2022-08-03T09:31:43;97383.03;;;44.98;11.14
73280;BME280;61511;49.286;9.700;2022-08-03T09:34:15;97374.28;;;46.78;10.39
73280;BME280;61511;49.286;9.700;2022-08-03T09:36:44;97376.97;;;45.69;11.25
73280;BME280;61511;49.286;9.700;2022-08-03T09:39:13;97374.53;;;45.77;11.06
73280;BME280;61511;49.286;9.700;2022-08-03T09:41:43;97366.44;;;45.59;11.43
73280;BME280;61511;49.286;9.700;2022-08-03T09:44:11;97382.34;;;45.18;10.67
73280;BME280;61511;49.286;9.700;2022-08-03T09:46:52;97374.06;;;44.30;11.71
73280;BME280;61511;49.286;9.700;2022-08-03T09:49:20;97374.41;;;45.11;11.51
73280;BME280;61511;49.286;9.700;2022-08-03T09:51:49;97372.16;;;45.70;11.50
73280;BME280;61511;49.286;9.700;2022-08-03T09:54:37;97370.00;;;43.77;12.18
73280;BME280;61511;49.286;9.700;2022-08-03T09:57:05;97368.97;;;43.51;12.50
73280;BME280;61511;49.286;9.700;2022-08-03T09:59:33;97372.44;;;43.13;12.94
73280;BME280;61511;49.286;9.700;2022-08-03T10:02:19;97368.94;;;42.94;12.92
73280;BME280;61511;49.286;9.700;2022-08-03T10:04:48;97357.88;;;44.04;12.54
73280;BME280;61511;49.286;9.700;2022-08-03T10:07:19;97364.41;;;43.39;12.91
73280;BME280;61511;49.286;9.700;2022-08-03T10:09:56;97364.34;;;42.31;13.77
73280;BME280;61511;49.286;9.700;2022-08-03T10:12:44;97357.41;;;41.54;14.04
73280;BME280;61511;49.286;9.700;2022-08-03T10:15:14;97350.13;;;42.47;13.47
73280;BME280;61511;49.286;9.700;2022-08-03T10:18:04;97341.38;;;42.21;13.64
73280;BME280;61511;49.286;9.700;2022-08-03T10:20:36;97349.06;;;42.17;13.69
73280;BME280;61511;49.286;9.700;2022-08-03T10:23:04;97337.25;;;41.04;14.81
73280;BME280;61511;49.286;9.700;2022-08-03T10:25:37;97347.88;;;41.73;14.44
73280;BME280;61511;49.286;9.700;2022-08-03T10:28:06;97349.13;;;42.69;13.62
73280;BME280;61511;49.286;9.700;2022-08-03T10:30:36;97345.44;;;42.63;13.34
73280;BME280;61511;49.286;9.700;2022-08-03T10:33:14;97332.41;;;43.20;12.78
73280;BME280;61511;49.286;9.700;2022-08-03T10:36:05;97346.19;;;43.62;13.07
73280;BME280;61511;49.286;9.700;2022-08-03T10:38:37;97333.06;;;43.15;13.08
73280;BME280;61511;49.286;9.700;2022-08-03T10:41:05;97326.78;;;43.53;12.96
73280;BME280;61511;49.286;9.700;2022-08-03T10:43:52;97324.78;;;42.64;13.04
73280;BME280;61511;49.286;9.700;2022-08-03T10:46:23;97325.97;;;43.05;12.99
73280;BME280;61511;49.286;9.700;2022-08-03T10:48:55;97321.66;;;42.71;13.17
73280;BME280;61511;49.286;9.700;2022-08-03T10:51:24;97315.94;;;42.14;13.80
73280;BME280;61511;49.286;9.700;2022-08-03T10:53:57;97319.63;;;42.38;13.72
73280;BME280;61511;49.286;9.700;2022-08-03T10:56:40;97317.97;;;42.74;13.33
73280;BME280;61511;49.286;9.700;2022-08-03T10:59:59;97306.91;;;43.84;12.20
73280;BME280;61511;49.286;9.700;2022-08-03T11:03:04;97309.19;;;44.88;11.30
73280;BME280;61511;49.286;9.700;2022-08-03T11:05:40;97301.16;;;45.10;11.32
73280;BME280;61511;49.286;9.700;2022-08-03T11:08:23;97302.06;;;45.22;11.41
73280;BME280;61511;49.286;9.700;2022-08-03T11:10:53;97303.63;;;44.38;11.79
73280;BME280;61511;49.286;9.700;2022-08-03T11:13:23;97298.41;;;44.02;12.27
73280;BME280;61511;49.286;9.700;2022-08-03T11:15:54;97310.72;;;43.00;12.67
73280;BME280;61511;49.286;9.700;2022-08-03T11:18:28;97296.13;;;41.52;13.56
73280;BME280;61511;49.286;9.700;2022-08-03T11:20:59;97289.03;;;41.51;14.20
73280;BME280;61511;49.286;9.700;2022-08-03T11:23:42;97304.75;;;40.55;15.01
73280;BME280;61511;49.286;9.700;2022-08-03T11:26:31;97293.00;;;41.22;14.41
73280;BME280;61511;49.286;9.700;2022-08-03T11:29:26;97291.66;;;41.63;14.26
73280;BME280;61511;49.286;9.700;2022-08-03T11:31:54;97303.81;;;42.53;13.53
73280;BME280;61511;49.286;9.700;2022-08-03T11:34:23;97297.88;;;42.70;13.33
73280;BME280;61511;49.286;9.700;2022-08-03T11:37:21;97299.59;;;42.67;13.14
73280;BME280;61511;49.286;9.700;2022-08-03T11:39:55;97286.84;;;42.09;13.39
73280;BME280;61511;49.286;9.700;2022-08-03T11:42:40;97282.25;;;41.52;14.18
73280;BME280;61511;49.286;9.700;2022-08-03T11:45:23;97277.00;;;41.17;14.48
73280;BME280;61511;49.286;9.700;2022-08-03T11:47:55;97269.69;;;40.52;14.30
73280;BME280;61511;49.286;9.700;2022-08-03T11:50:51;97270.53;;;39.66;15.01
73280;BME280;61511;49.286;9.700;2022-08-03T11:53:35;97286.03;;;37.86;16.48
73280;BME280;61511;49.286;9.700;2022-08-03T11:56:20;97279.47;;;37.96;17.63
73280;BME280;61511;49.286;9.700;2022-08-03T11:58:56;97275.50;;;38.77;16.57
73280;BME280;61511;49.286;9.700;2022-08-03T12:01:46;97270.94;;;38.19;16.77
73280;BME280;61511;49.286;9.700;2022-08-03T12:04:20;97268.97;;;38.20;16.25
73280;BME280;61511;49.286;9.700;2022-08-03T12:06:59;97277.03;;;38.65;15.51
73280;BME280;61511;49.286;9.700;2022-08-03T12:09:39;97269.56;;;39.25;15.42
73280;BME280;61511;49.286;9.700;2022-08-03T12:12:22;97266.50;;;39.79;15.56
73280;BME280;61511;49.286;9.700;2022-08-03T12:15:02;97263.47;;;39.87;15.35
73280;BME280;61511;49.286;9.700;2022-08-03T12:17:35;97253.44;;;39.58;14.25
73280;BME280;61511;49.286;9.700;2022-08-03T12:20:22;97257.41;;;39.23;15.69
73280;BME280;61511;49.286;9.700;2022-08-03T12:23:02;97254.19;;;39.37;15.04
73280;BME280;61511;49.286;9.700;2022-08-03T12:25:35;97255.34;;;40.85;14.89
73280;BME280;61511;49.286;9.700;2022-08-03T12:28:08;97248.59;;;40.46;14.24
73280;BME280;61511;49.286;9.700;2022-08-03T12:31:00;97248.47;;;39.97;14.25
73280;BME280;61511;49.286;9.700;2022-08-03T12:33:29;97254.50;;;39.61;14.88
73280;BME280;61511;49.286;9.700;2022-08-03T12:36:05;97240.28;;;38.68;16.02
73280;BME280;61511;49.286;9.700;2022-08-03T12:38:36;97247.44;;;38.78;15.37
73280;BME280;61511;49.286;9.700;2022-08-03T12:41:07;97240.63;;;39.17;15.24
73280;BME280;61511;49.286;9.700;2022-08-03T12:43:46;97238.28;;;38.81;15.15
73280;BME280;61511;49.286;9.700;2022-08-03T12:46:15;97239.34;;;39.09;15.44
73280;BME280;61511;49.286;9.700;2022-08-03T12:49:01;97241.09;;;39.50;14.91
73280;BME280;61511;49.286;9.700;2022-08-03T12:51:31;97239.16;;;40.03;14.40
73280;BME280;61511;49.286;9.700;2022-08-03T12:54:00;97226.94;;;39.92;14.52
73280;BME280;61511;49.286;9.700;2022-08-03T12:56:30;97234.09;;;39.58;14.67
73280;BME280;61511;49.286;9.700;2022-08-03T12:58:58;97230.41;;;40.05;14.40
73280;BME280;61511;49.286;9.700;2022-08-03T13:01:35;97223.06;;;40.42;13.70
73280;BME280;61511;49.286;9.700;2022-08-03T13:04:28;97218.13;;;40.77;14.03
73280;BME280;61511;49.286;9.700;2022-08-03T13:06:59;97228.03;;;41.60;13.30
73280;BME280;61511;49.286;9.700;2022-08-03T13:09:29;97233.69;;;42.77;12.15
73280;BME280;61511;49.286;9.700;2022-08-03T13:12:08;97227.91;;;43.90;11.04
73280;BME280;61511;49.286;9.700;2022-08-03T13:14:36;97234.25;;;44.90;10.37
73280;BME280;61511;49.286;9.700;2022-08-03T13:17:05;97229.56;;;46.19;9.06
73280;BME280;61511;49.286;9.700;2022-08-03T13:19:33;97233.25;;;47.22;8.74
73280;BME280;61511;49.286;9.700;2022-08-03T13:22:10;97237.16;;;47.41;8.03
73280;BME280;61511;49.286;9.700;2022-08-03T13:24:38;97228.94;;;47.26;8.95
73280;BME280;61511;49.286;9.700;2022-08-03T13:27:08;97227.47;;;45.57;9.61
73280;BME280;61511;49.286;9.700;2022-08-03T13:29:56;97223.03;;;44.49;10.43
73280;BME280;61511;49.286;9.700;2022-08-03T13:32:25;97224.38;;;43.51;11.15
73280;BME280;61511;49.286;9.700;2022-08-03T13:34:53;97227.22;;;42.80;11.82